createdAt,value
2017-05-06T00:02:06.569Z,3.88
2017-05-06T00:04:35.454Z,4.58
2017-05-06T00:07:04.374Z,5.28
2017-05-06T00:09:33.253Z,4.20
2017-05-06T00:12:02.128Z,3.84
2017-05-06T00:14:31.046Z,4.13
2017-05-06T00:16:59.921Z,3.98
2017-05-06T00:19:28.803Z,4.10
2017-05-06T00:21:57.802Z,4.62
2017-05-06T00:24:26.681Z,3.50
2017-05-06T00:26:55.560Z,3.98
2017-05-06T00:29:24.476Z,5.05
2017-05-06T00:31:53.359Z,4.28
2017-05-06T00:34:22.230Z,5.97
2017-05-06T00:36:51.152Z,7.47
2017-05-06T00:39:20.033Z,8.18
2017-05-06T00:41:48.910Z,9.28
2017-05-06T00:44:17.921Z,10.20
2017-05-06T00:46:46.801Z,8.70
2017-05-06T00:49:15.688Z,10.13
2017-05-06T00:51:44.608Z,10.95
2017-05-06T00:54:13.484Z,12.52
2017-05-06T00:56:42.371Z,14.05
2017-05-06T00:59:11.488Z,12.82
2017-05-06T01:01:41.115Z,9.60
2017-05-06T01:04:10.858Z,8.05
2017-05-06T01:06:39.732Z,6.63
2017-05-06T01:09:08.613Z,6.02
2017-05-06T01:11:37.529Z,5.58
2017-05-06T01:14:06.405Z,5.48
2017-05-06T01:16:35.281Z,7.08
2017-05-06T01:19:04.204Z,10.10
2017-05-06T01:21:33.083Z,5.70
2017-05-06T01:24:01.957Z,7.05
2017-05-06T01:26:30.874Z,7.70
2017-05-06T01:28:59.747Z,5.96
2017-05-06T01:31:28.617Z,7.82
2017-05-06T01:33:58.256Z,9.96
2017-05-06T01:36:27.165Z,16.40
2017-05-06T01:38:56.079Z,17.48
2017-05-06T01:41:24.954Z,14.98
2017-05-06T01:43:53.834Z,15.74
2017-05-06T01:46:22.777Z,15.96
2017-05-06T01:48:51.672Z,13.74
2017-05-06T01:51:21.305Z,14.78
2017-05-06T01:53:50.468Z,14.10
2017-05-06T01:56:20.097Z,13.23
2017-05-06T01:58:48.991Z,13.72
2017-05-06T02:01:18.002Z,11.02
2017-05-06T02:03:46.885Z,10.82
2017-05-06T02:06:15.766Z,10.22
2017-05-06T02:08:44.688Z,11.03
2017-05-06T02:11:13.600Z,9.70
2017-05-06T02:13:42.485Z,12.00
2017-05-06T02:16:11.608Z,11.05
2017-05-06T02:18:41.230Z,9.98
2017-05-06T02:21:10.848Z,11.62
2017-05-06T02:23:39.769Z,7.27
2017-05-06T02:26:08.640Z,8.15
2017-05-06T02:28:37.514Z,7.00
2017-05-06T02:31:06.417Z,6.23
2017-05-06T02:33:35.429Z,10.32
2017-05-06T02:36:04.310Z,6.67
2017-05-06T02:38:33.187Z,5.92
2017-05-06T02:41:02.098Z,6.53
2017-05-06T02:43:30.978Z,5.02
2017-05-06T02:45:59.857Z,4.47
2017-05-06T02:48:28.769Z,5.10
2017-05-06T02:50:57.677Z,5.72
2017-05-06T02:53:26.554Z,4.85
2017-05-06T02:55:55.458Z,4.72
2017-05-06T02:58:24.641Z,5.37
2017-05-06T03:00:53.520Z,5.40
2017-05-06T03:03:22.395Z,4.50
2017-05-06T03:05:51.339Z,3.85
2017-05-06T03:08:20.209Z,5.15
2017-05-06T03:10:49.096Z,4.85
2017-05-06T03:13:18.211Z,5.50
2017-05-06T03:15:47.079Z,4.95
2017-05-06T03:18:15.956Z,4.82
2017-05-06T03:20:44.868Z,3.98
2017-05-06T03:23:13.749Z,3.95
2017-05-06T03:25:42.620Z,4.50
2017-05-06T03:28:11.624Z,4.00
2017-05-06T03:30:40.504Z,4.18
2017-05-06T03:33:09.377Z,4.57
2017-05-06T03:35:39.328Z,4.03
2017-05-06T03:38:08.204Z,4.42
2017-05-06T03:40:37.078Z,4.73
2017-05-06T03:43:07.025Z,5.33
2017-05-06T03:45:35.898Z,5.25
2017-05-06T03:48:04.768Z,4.42
2017-05-06T03:50:34.408Z,5.30
2017-05-06T03:53:03.286Z,5.42
2017-05-06T03:55:32.198Z,5.45
2017-05-06T03:58:01.073Z,4.57
2017-05-06T04:00:29.950Z,5.32
2017-05-06T04:02:58.859Z,5.88
2017-05-06T04:05:27.732Z,5.60
2017-05-06T04:07:56.628Z,5.35
2017-05-06T04:10:25.537Z,5.37
2017-05-06T04:12:54.413Z,4.97
2017-05-06T04:15:23.286Z,4.82
2017-05-06T04:17:52.949Z,4.63
2017-05-06T04:20:21.839Z,4.62
2017-05-06T04:22:50.718Z,4.68
2017-05-06T04:25:19.633Z,4.18
2017-05-06T04:27:48.512Z,4.67
2017-05-06T04:30:17.393Z,4.05
2017-05-06T04:32:46.302Z,7.05
2017-05-06T04:35:15.186Z,3.82
2017-05-06T04:37:44.076Z,4.55
2017-05-06T04:40:12.980Z,5.57
2017-05-06T04:42:41.858Z,4.27
2017-05-06T04:45:10.733Z,5.07
2017-05-06T04:47:39.736Z,5.07
2017-05-06T04:50:08.612Z,4.90
2017-05-06T04:52:37.488Z,5.65
2017-05-06T04:55:06.392Z,4.60
2017-05-06T04:57:35.269Z,4.52
2017-05-06T05:00:04.148Z,4.93
2017-05-06T05:02:33.065Z,4.95
2017-05-06T05:05:01.948Z,4.05
2017-05-06T05:07:30.827Z,4.55
2017-05-06T05:09:59.732Z,4.57
2017-05-06T05:12:28.605Z,5.47
2017-05-06T05:14:57.612Z,7.22
2017-05-06T05:17:26.490Z,4.80
2017-05-06T05:19:55.370Z,4.23
2017-05-06T05:22:24.286Z,3.84
2017-05-06T05:24:53.165Z,3.88
2017-05-06T05:27:22.039Z,4.12
2017-05-06T05:29:50.954Z,5.18
2017-05-06T05:32:19.872Z,4.47
2017-05-06T05:34:48.797Z,4.08
2017-05-06T05:37:18.441Z,4.42
2017-05-06T05:39:47.421Z,4.08
2017-05-06T05:42:17.054Z,5.16
2017-05-06T05:44:46.072Z,4.60
2017-05-06T05:47:15.022Z,4.25
2017-05-06T05:49:43.973Z,4.86
2017-05-06T05:52:12.860Z,4.66
2017-05-06T05:54:41.857Z,4.32
2017-05-06T05:57:11.105Z,4.80
2017-05-06T05:59:39.976Z,5.14
2017-05-06T06:02:08.858Z,6.20
2017-05-06T06:04:37.893Z,4.22
2017-05-06T06:07:06.770Z,4.90
2017-05-06T06:09:35.658Z,4.54
2017-05-06T06:12:04.665Z,4.36
2017-05-06T06:14:33.537Z,4.28
2017-05-06T06:17:02.415Z,4.38
2017-05-06T06:19:32.056Z,4.92
2017-05-06T06:22:00.933Z,4.12
2017-05-06T06:24:29.842Z,3.64
2017-05-06T06:26:58.721Z,4.52
2017-05-06T06:29:27.640Z,3.80
2017-05-06T06:31:56.526Z,3.60
2017-05-06T06:34:25.402Z,4.48
2017-05-06T06:36:54.421Z,4.60
2017-05-06T06:39:23.333Z,5.14
2017-05-06T06:41:52.205Z,4.44
2017-05-06T06:44:21.224Z,3.16
2017-05-06T06:46:50.112Z,5.14
2017-05-06T06:49:18.985Z,7.44
2017-05-06T06:51:48.028Z,5.90
2017-05-06T06:54:16.901Z,6.82
2017-05-06T06:56:45.785Z,6.66
2017-05-06T06:59:15.445Z,7.20
2017-05-06T07:01:44.325Z,6.24
2017-05-06T07:04:13.205Z,7.46
2017-05-06T07:06:42.128Z,9.18
2017-05-06T07:09:11.005Z,6.08
2017-05-06T07:11:39.881Z,6.00
2017-05-06T07:14:08.793Z,5.66
2017-05-06T07:16:37.673Z,6.10
2017-05-06T07:19:06.545Z,6.02
2017-05-06T07:21:35.751Z,5.08
2017-05-06T07:24:04.661Z,6.58
2017-05-06T07:26:33.541Z,6.74
2017-05-06T07:29:02.738Z,10.02
2017-05-06T07:31:31.622Z,6.90
2017-05-06T07:34:00.504Z,6.82
2017-05-06T07:36:29.509Z,6.92
2017-05-06T07:38:58.427Z,7.14
2017-05-06T07:41:27.304Z,7.26
2017-05-06T07:43:56.232Z,8.34
2017-05-06T07:46:25.109Z,11.48
2017-05-06T07:48:54.119Z,6.66
2017-05-06T07:51:23.745Z,7.14
2017-05-06T07:53:53.366Z,6.58
2017-05-06T07:56:22.265Z,6.32
2017-05-06T07:58:51.180Z,5.70
2017-05-06T08:01:20.063Z,4.36
2017-05-06T08:03:48.937Z,5.26
2017-05-06T08:06:17.858Z,4.70
2017-05-06T08:08:46.750Z,9.52
2017-05-06T08:11:15.645Z,3.40
2017-05-06T08:13:44.561Z,3.10
2017-05-06T08:16:14.189Z,3.02
2017-05-06T08:18:43.805Z,2.60
2017-05-06T08:21:12.933Z,2.62
2017-05-06T08:23:41.815Z,4.86
2017-05-06T08:26:10.701Z,2.50
2017-05-06T08:28:39.597Z,3.28
2017-05-06T08:31:08.472Z,4.34
2017-05-06T08:33:37.681Z,3.64
2017-05-06T08:36:06.557Z,4.00
2017-05-06T08:38:35.439Z,2.30
2017-05-06T08:41:04.797Z,1.90
2017-05-06T08:43:33.665Z,2.90
2017-05-06T08:46:02.848Z,3.04
2017-05-06T08:48:31.719Z,3.20
2017-05-06T08:51:00.598Z,2.52
2017-05-06T08:53:30.234Z,3.06
2017-05-06T08:55:59.117Z,2.58
2017-05-06T08:58:28.021Z,2.20
2017-05-06T09:00:56.907Z,3.22
2017-05-06T09:03:25.767Z,2.82
2017-05-06T09:05:55.709Z,2.44
2017-05-06T09:08:24.592Z,2.46
2017-05-06T09:10:53.468Z,2.86
2017-05-06T09:13:23.208Z,3.26
2017-05-06T09:15:52.085Z,3.20
2017-05-06T09:18:20.984Z,2.68
2017-05-06T09:20:50.597Z,2.74
2017-05-06T09:23:19.513Z,2.96
2017-05-06T09:25:48.385Z,2.70
2017-05-06T09:28:17.257Z,2.72
2017-05-06T09:30:46.162Z,3.26
2017-05-06T09:33:15.036Z,2.24
2017-05-06T09:35:43.934Z,2.62
2017-05-06T09:38:12.814Z,5.70
2017-05-06T09:40:41.732Z,3.24
2017-05-06T09:43:10.597Z,2.82
2017-05-06T09:45:39.473Z,2.44
2017-05-06T09:48:09.116Z,1.70
2017-05-06T09:50:37.997Z,1.86
2017-05-06T09:53:06.869Z,3.66
2017-05-06T09:55:35.792Z,2.10
2017-05-06T09:58:04.668Z,1.30
2017-05-06T10:00:33.536Z,1.78
2017-05-06T10:03:02.457Z,2.90
2017-05-06T10:05:31.328Z,1.70
2017-05-06T10:08:00.211Z,2.42
2017-05-06T10:10:29.860Z,1.34
2017-05-06T10:12:58.732Z,1.46
2017-05-06T10:15:27.609Z,2.00
2017-05-06T10:17:56.537Z,2.06
2017-05-06T10:20:25.412Z,1.74
2017-05-06T10:22:54.315Z,1.44
2017-05-06T10:25:23.221Z,2.10
2017-05-06T10:27:52.098Z,1.78
2017-05-06T10:30:20.976Z,1.52
2017-05-06T10:32:49.876Z,1.90
2017-05-06T10:35:18.750Z,1.54
2017-05-06T10:37:47.629Z,1.86
2017-05-06T10:40:16.531Z,1.82
2017-05-06T10:42:45.407Z,1.70
2017-05-06T10:45:14.319Z,1.62
2017-05-06T10:47:43.194Z,1.48
2017-05-06T10:50:12.065Z,1.64
2017-05-06T10:52:41.719Z,3.22
2017-05-06T10:55:10.594Z,1.96
2017-05-06T10:57:39.464Z,1.78
2017-05-06T11:00:08.388Z,2.96
2017-05-06T11:02:37.262Z,1.86
2017-05-06T11:05:06.130Z,1.64
2017-05-06T11:07:35.350Z,1.64
2017-05-06T11:10:04.219Z,1.66
2017-05-06T11:12:33.092Z,1.42
2017-05-06T11:15:02.756Z,1.12
2017-05-06T11:17:31.627Z,1.30
2017-05-06T11:20:00.501Z,4.08
2017-05-06T11:22:29.720Z,1.60
2017-05-06T11:24:58.593Z,1.80
2017-05-06T11:27:27.465Z,1.86
2017-05-06T11:29:57.108Z,1.90
2017-05-06T11:32:25.981Z,4.40
2017-05-06T11:34:54.892Z,1.80
2017-05-06T11:37:23.764Z,2.04
2017-05-06T11:39:52.641Z,1.84
2017-05-06T11:42:22.390Z,2.64
2017-05-06T11:44:51.255Z,1.70
2017-05-06T11:47:20.135Z,1.68
2017-05-06T11:49:49.788Z,1.72
2017-05-06T11:52:18.660Z,2.02
2017-05-06T11:54:47.533Z,1.74
2017-05-06T11:57:16.457Z,1.52
2017-05-06T11:59:45.328Z,2.00
2017-05-06T12:02:14.206Z,2.12
2017-05-06T12:04:43.122Z,1.94
2017-05-06T12:07:11.997Z,2.04
2017-05-06T12:09:40.869Z,1.82
2017-05-06T12:12:10.523Z,2.26
2017-05-06T12:14:39.403Z,1.78
2017-05-06T12:17:08.284Z,2.38
2017-05-06T12:19:37.181Z,5.72
2017-05-06T12:22:06.063Z,2.00
2017-05-06T12:24:34.976Z,2.42
2017-05-06T12:27:03.856Z,3.62
2017-05-06T12:29:32.725Z,1.72
2017-05-06T12:32:01.633Z,2.32
2017-05-06T12:34:30.518Z,1.80
2017-05-06T12:36:59.392Z,2.80
2017-05-06T12:39:28.524Z,2.26
2017-05-06T12:41:57.412Z,2.04
2017-05-06T12:44:26.279Z,3.60
2017-05-06T12:46:55.481Z,1.96
2017-05-06T12:49:24.362Z,2.28
2017-05-06T12:51:53.230Z,2.92
2017-05-06T12:54:22.868Z,2.62
2017-05-06T12:56:51.772Z,2.34
2017-05-06T12:59:20.748Z,2.54
2017-05-06T13:01:49.621Z,2.46
2017-05-06T13:04:19.230Z,2.48
2017-05-06T13:06:48.151Z,2.14
2017-05-06T13:09:17.030Z,2.64
2017-05-06T13:11:45.905Z,2.60
2017-05-06T13:14:14.900Z,2.36
2017-05-06T13:16:43.781Z,3.04
2017-05-06T13:19:13.392Z,2.44
2017-05-06T13:21:42.293Z,2.90
2017-05-06T13:24:11.173Z,2.62
2017-05-06T13:26:40.086Z,2.44
2017-05-06T13:29:08.956Z,2.66
2017-05-06T13:31:37.828Z,2.88
2017-05-06T13:34:07.481Z,4.66
2017-05-06T13:36:36.348Z,2.70
2017-05-06T13:39:05.220Z,4.34
2017-05-06T13:41:34.873Z,3.90
2017-05-06T13:44:03.749Z,2.50
2017-05-06T13:46:32.625Z,2.92
2017-05-06T13:49:01.545Z,5.56
2017-05-06T13:51:30.418Z,2.84
2017-05-06T13:53:59.283Z,5.04
2017-05-06T13:56:28.194Z,2.42
2017-05-06T13:58:57.104Z,3.18
2017-05-06T14:01:25.969Z,2.74
2017-05-06T14:03:55.178Z,2.78
2017-05-06T14:06:24.090Z,3.10
2017-05-06T14:08:52.973Z,3.20
2017-05-06T14:11:21.848Z,2.90
2017-05-06T14:13:50.744Z,2.80
2017-05-06T14:16:19.612Z,3.18
2017-05-06T14:18:49.660Z,3.18
2017-05-06T14:21:18.529Z,3.70
2017-05-06T14:23:47.397Z,4.70
2017-05-06T14:26:17.353Z,3.52
2017-05-06T14:28:46.220Z,3.52
2017-05-06T14:31:15.095Z,3.38
2017-05-06T14:33:44.008Z,5.84
2017-05-06T14:36:12.893Z,3.38
2017-05-06T14:38:41.770Z,4.50
2017-05-06T14:41:11.426Z,3.94
2017-05-06T14:43:40.292Z,3.52
2017-05-06T14:46:09.181Z,4.04
2017-05-06T14:51:13.188Z,3.80
2017-05-06T14:53:43.125Z,3.08
2017-05-06T14:56:12.001Z,2.40
2017-05-06T14:58:41.620Z,2.44
2017-05-06T15:01:10.532Z,3.18
2017-05-06T15:03:39.409Z,2.70
2017-05-06T15:06:08.279Z,2.88
2017-05-06T15:08:37.187Z,2.78
2017-05-06T15:11:06.060Z,4.00
2017-05-06T15:13:35.715Z,3.22
2017-05-06T15:16:04.585Z,2.70
2017-05-06T15:18:33.463Z,2.98
2017-05-06T15:21:02.368Z,3.92
2017-05-06T15:23:31.244Z,4.26
2017-05-06T15:26:00.141Z,3.58
2017-05-06T15:28:29.059Z,3.76
2017-05-06T15:30:57.932Z,4.30
2017-05-06T15:33:26.809Z,3.48
2017-05-06T15:35:55.832Z,3.72
2017-05-06T15:38:24.708Z,4.70
2017-05-06T15:40:53.581Z,3.22
2017-05-06T15:43:22.503Z,2.62
2017-05-06T15:45:51.382Z,3.06
2017-05-06T15:48:20.249Z,4.14
2017-05-06T15:50:49.169Z,5.68
2017-05-06T15:53:18.048Z,5.28
2017-05-06T15:55:46.925Z,3.52
2017-05-06T15:58:15.848Z,2.40
2017-05-06T16:00:44.721Z,3.32
2017-05-06T16:03:13.610Z,2.62
2017-05-06T16:05:42.556Z,2.22
2017-05-06T16:08:11.432Z,4.76
2017-05-06T16:10:40.309Z,2.76
2017-05-06T16:13:09.236Z,4.24
2017-05-06T16:15:38.852Z,2.16
2017-05-06T16:18:08.491Z,1.90
2017-05-06T16:20:37.385Z,3.56
2017-05-06T16:23:06.283Z,2.40
2017-05-06T16:25:35.197Z,2.20
2017-05-06T16:28:04.074Z,2.66
2017-05-06T16:30:32.948Z,2.92
2017-05-06T16:33:01.861Z,2.18
2017-05-06T16:35:30.732Z,1.90
2017-05-06T16:37:59.613Z,2.50
2017-05-06T16:40:28.538Z,1.74
2017-05-06T16:42:57.412Z,2.60
2017-05-06T16:45:26.295Z,1.88
2017-05-06T16:47:55.193Z,1.98
2017-05-06T16:50:24.473Z,2.02
2017-05-06T16:52:53.349Z,3.40
2017-05-06T16:55:22.225Z,2.06
2017-05-06T16:57:51.890Z,2.32
2017-05-06T17:00:20.769Z,2.14
2017-05-06T17:02:49.713Z,1.62
2017-05-06T17:05:19.333Z,1.58
2017-05-06T17:07:48.220Z,1.92
2017-05-06T17:10:17.856Z,2.38
2017-05-06T17:12:46.995Z,2.20
2017-05-06T17:15:15.867Z,2.94
2017-05-06T17:17:44.758Z,4.50
2017-05-06T17:20:13.680Z,1.74
2017-05-06T17:22:43.316Z,2.44
2017-05-06T17:25:12.184Z,2.64
2017-05-06T17:27:42.144Z,4.78
2017-05-06T17:30:11.019Z,3.20
2017-05-06T17:32:39.892Z,4.12
2017-05-06T17:35:08.817Z,2.90
2017-05-06T17:37:37.692Z,3.26
2017-05-06T17:40:06.569Z,3.40
2017-05-06T17:42:36.226Z,2.52
2017-05-06T17:45:05.097Z,2.50
2017-05-06T17:47:33.981Z,2.40
2017-05-06T17:50:03.184Z,2.30
2017-05-06T17:52:32.079Z,2.62
2017-05-06T17:55:00.956Z,2.30
2017-05-06T17:57:29.957Z,1.94
2017-05-06T17:59:58.838Z,3.12
2017-05-06T18:02:27.729Z,3.56
2017-05-06T18:04:56.645Z,2.80
2017-05-06T18:07:25.523Z,2.62
2017-05-06T18:09:54.392Z,2.82
2017-05-06T18:12:23.289Z,2.08
2017-05-06T18:14:52.175Z,2.52
2017-05-06T18:17:21.093Z,2.28
2017-05-06T18:19:49.989Z,3.10
2017-05-06T18:22:18.879Z,2.60
2017-05-06T18:24:47.807Z,2.32
2017-05-06T18:27:16.675Z,4.68
2017-05-06T18:29:45.554Z,4.04
2017-05-06T18:32:14.730Z,5.16
2017-05-06T18:34:43.605Z,2.68
2017-05-06T18:37:12.481Z,2.96
2017-05-06T18:39:42.432Z,2.46
2017-05-06T18:42:11.312Z,2.72
2017-05-06T18:44:40.189Z,2.16
2017-05-06T18:47:09.084Z,3.38
2017-05-06T18:49:37.999Z,3.14
2017-05-06T18:52:06.870Z,2.40
2017-05-06T18:54:35.749Z,2.80
2017-05-06T18:57:04.649Z,2.76
2017-05-06T18:59:33.525Z,2.28
2017-05-06T19:02:03.140Z,2.58
2017-05-06T19:04:32.050Z,2.64
2017-05-06T19:07:01.221Z,3.00
2017-05-06T19:09:30.125Z,2.60
2017-05-06T19:11:59.065Z,2.84
2017-05-06T19:14:27.993Z,3.34
2017-05-06T19:16:57.627Z,3.52
2017-05-06T19:19:26.544Z,3.66
2017-05-06T19:21:55.417Z,4.14
2017-05-06T19:24:24.300Z,6.48
2017-05-06T19:26:53.992Z,10.40
2017-05-06T19:29:22.859Z,9.58
2017-05-06T19:31:52.519Z,7.44
2017-05-06T19:34:21.391Z,4.72
2017-05-06T19:36:50.260Z,4.68
2017-05-06T19:39:19.906Z,3.58
2017-05-06T19:41:48.806Z,5.70
2017-05-06T19:44:18.159Z,6.22
2017-05-06T19:46:47.809Z,5.42
2017-05-06T19:49:16.687Z,6.40
2017-05-06T19:51:45.558Z,6.26
2017-05-06T19:54:14.775Z,6.58
2017-05-06T19:56:43.650Z,9.14
2017-05-06T19:59:12.628Z,9.86
2017-05-06T20:01:42.285Z,8.22
2017-05-06T20:04:11.175Z,10.14
2017-05-06T20:06:40.049Z,10.04
2017-05-06T20:09:09.044Z,8.86
2017-05-06T20:11:37.912Z,8.00
2017-05-06T20:14:06.785Z,6.32
2017-05-06T20:16:36.437Z,6.74
2017-05-06T20:19:05.318Z,5.52
2017-05-06T20:21:34.194Z,7.80
2017-05-06T20:24:03.761Z,6.90
2017-05-06T20:26:32.620Z,6.00
2017-05-06T20:29:01.503Z,5.48
2017-05-06T20:31:30.400Z,8.06
2017-05-06T20:33:59.316Z,8.98
2017-05-06T20:36:28.199Z,7.66
2017-05-06T20:38:57.073Z,6.50
2017-05-06T20:41:25.980Z,4.96
2017-05-06T20:43:54.862Z,5.30
2017-05-06T20:46:23.778Z,7.02
2017-05-06T20:48:52.806Z,5.10
2017-05-06T20:51:22.417Z,4.24
2017-05-06T20:53:51.298Z,4.76
2017-05-06T20:56:20.949Z,4.68
2017-05-06T20:58:49.847Z,4.62
2017-05-06T21:01:18.736Z,5.54
2017-05-06T21:03:47.642Z,5.76
2017-05-06T21:06:16.521Z,6.85
2017-05-06T21:08:45.388Z,4.98
2017-05-06T21:11:14.586Z,6.18
2017-05-06T21:13:43.457Z,5.24
2017-05-06T21:16:12.333Z,4.54
2017-05-06T21:18:43.303Z,5.02
2017-05-06T21:21:12.173Z,4.50
2017-05-06T21:23:41.075Z,5.10
2017-05-06T21:26:09.982Z,5.48
2017-05-06T21:28:38.853Z,6.56
2017-05-06T21:31:07.728Z,4.62
2017-05-06T21:33:37.672Z,5.48
2017-05-06T21:36:06.544Z,5.36
2017-05-06T21:38:35.441Z,4.48
2017-05-06T21:41:04.566Z,8.46
2017-05-06T21:43:33.438Z,5.86
2017-05-06T21:46:02.309Z,4.80
2017-05-06T21:48:31.209Z,4.28
2017-05-06T21:51:00.087Z,4.00
2017-05-06T21:53:29.824Z,4.16
2017-05-06T21:55:58.698Z,4.84
2017-05-06T21:58:27.573Z,4.88
2017-05-06T22:00:57.228Z,4.26
2017-05-06T22:03:26.119Z,4.24
2017-05-06T22:05:54.988Z,5.28
2017-05-06T22:08:23.999Z,4.42
2017-05-06T22:10:52.876Z,5.36
2017-05-06T22:13:21.759Z,3.52
2017-05-06T22:15:50.973Z,4.56
2017-05-06T22:18:19.878Z,5.70
2017-05-06T22:20:48.729Z,4.98
2017-05-06T22:23:17.725Z,4.28
2017-05-06T22:25:46.603Z,4.12
2017-05-06T22:28:16.218Z,4.22
2017-05-06T22:30:45.129Z,4.22
2017-05-06T22:33:14.004Z,4.82
2017-05-06T22:35:42.880Z,5.04
2017-05-06T22:38:11.795Z,3.62
2017-05-06T22:40:40.656Z,4.96
2017-05-06T22:43:10.313Z,3.68
2017-05-06T22:45:39.190Z,3.36
2017-05-06T22:48:08.064Z,3.36
2017-05-06T22:50:37.197Z,3.78
2017-05-06T22:53:06.060Z,6.82
2017-05-06T22:55:34.925Z,3.18
2017-05-06T22:58:04.561Z,3.32
2017-05-06T23:00:33.477Z,3.26
2017-05-06T23:03:02.354Z,3.36
2017-05-06T23:05:31.222Z,3.04
2017-05-06T23:08:00.433Z,4.52
2017-05-06T23:10:29.305Z,3.52
2017-05-06T23:12:58.180Z,3.00
2017-05-06T23:15:28.127Z,3.02
2017-05-06T23:17:57.000Z,3.30
2017-05-06T23:20:25.875Z,5.02
2017-05-06T23:22:55.832Z,3.30
2017-05-06T23:25:24.704Z,2.36
2017-05-06T23:27:53.580Z,2.70
2017-05-06T23:30:23.229Z,2.84
2017-05-06T23:32:52.105Z,2.66
2017-05-06T23:35:20.972Z,3.42
2017-05-06T23:37:49.916Z,3.72
2017-05-06T23:40:18.780Z,3.38
2017-05-06T23:42:47.973Z,3.70
2017-05-06T23:45:16.848Z,3.36
2017-05-06T23:47:45.729Z,3.10
2017-05-06T23:50:15.465Z,3.44
2017-05-06T23:52:44.337Z,3.50
2017-05-06T23:55:13.224Z,3.38
2017-05-06T23:57:42.872Z,2.82
